Amesbury, Massachusetts
Current Conditions -  °F | °C
As of 9:54 PM on Friday 21 Nov 2014 (Local Time) from KLWM Reporting Station
Clear Clear  
Wind Chill: 16°   Ceiling: Unl
Heat Index: 24°   Visibility: 10mi
Dew Point:   Wind: 7mph
Humidity: 44%   Direction: 270°W
Pressure: 30.4"   Gusts: NA
Location:  42.86°N, 70.93°W
Report Text: KLWM 220254Z 27006KT 10SM CLR M04/M15 A3040 RMK AO2 SLP295 T10441150 53016
Loading
Personal Weather Stations






























Interactive Weather Map New forecast layout! Learn more

10-Day Weather Forecast

Advertisements
Track Severe Weather on mobile